Time;durP1;ratioP1;P1;durP2;ratioP2;P2;SDS_P1;SDS_P2;PMS_P1;PMS_P2;Temp;Humidity;BMP_temperature;BMP_pressure;BME280_temperature;BME280_humidity;BME280_pressure;Samples;Min_cycle;Max_cycle;Signal;HPM_P1;HPM_P2
2023/08/26 00:00:15;;;;;;;;;1.75;1.75;;;;;21.62;55.04;100871.28;5061164;28;46246;-75
2023/08/26 00:02:40;;;;;;;;;0.00;0.00;;;;;21.59;55.01;100874.22;5059444;28;45471;-75
2023/08/26 00:05:06;;;;;;;;;2.00;1.00;;;;;21.60;54.43;100869.66;5058546;28;50026;-75
2023/08/26 00:07:31;;;;;;;;;1.50;1.00;;;;;21.55;54.68;100866.44;5075293;28;45524;-75
2023/08/26 00:09:57;;;;;;;;;1.00;1.00;;;;;21.60;54.73;100873.25;5059548;28;47823;-75
2023/08/26 00:12:22;;;;;;;;;1.00;1.00;;;;;21.57;54.68;100869.91;5060809;28;45426;-75
2023/08/26 00:14:47;;;;;;;;;1.50;1.50;;;;;21.54;54.83;100868.28;5060882;28;45341;-75
2023/08/26 00:17:13;;;;;;;;;1.00;1.00;;;;;21.55;54.79;100866.44;5059736;28;45385;-75
2023/08/26 00:19:38;;;;;;;;;0.00;0.00;;;;;21.56;55.34;100865.44;5060022;28;45410;-75
2023/08/26 00:22:05;;;;;;;;;1.50;1.25;;;;;21.52;55.11;100855.78;5058603;28;45577;-75
2023/08/26 00:24:30;;;;;;;;;1.00;1.00;;;;;21.55;54.54;100861.00;5060806;28;45606;-74
2023/08/26 00:26:55;;;;;;;;;1.00;1.00;;;;;21.45;54.80;100845.38;5055358;28;45744;-75
2023/08/26 00:29:21;;;;;;;;;2.00;2.00;;;;;21.52;55.08;100861.22;5060471;28;46290;-75
2023/08/26 00:31:46;;;;;;;;;1.00;1.00;;;;;21.52;54.71;100861.22;5059088;28;45412;-75
2023/08/26 00:34:11;;;;;;;;;2.50;1.00;;;;;21.47;54.79;100850.75;5060442;28;45440;-75
2023/08/26 00:36:37;;;;;;;;;2.00;2.00;;;;;21.48;55.40;100855.16;5057643;28;50869;-75
2023/08/26 00:39:02;;;;;;;;;1.00;1.00;;;;;21.44;55.45;100848.22;5059851;28;49442;-74
2023/08/26 00:41:27;;;;;;;;;3.50;1.00;;;;;21.41;55.18;100849.31;5078773;27;45362;-75
2023/08/26 00:43:53;;;;;;;;;1.00;1.00;;;;;21.40;55.38;100854.84;5060539;28;45274;-74
2023/08/26 00:46:18;;;;;;;;;2.00;2.00;;;;;21.34;55.33;100850.75;5058936;28;45422;-75
2023/08/26 00:48:44;;;;;;;;;1.00;1.00;;;;;21.36;55.58;100845.22;5059305;28;45338;-75
2023/08/26 00:51:10;;;;;;;;;1.25;1.25;;;;;21.34;55.83;100847.19;5059831;28;45580;-74
2023/08/26 00:53:36;;;;;;;;;1.00;1.00;;;;;21.33;55.65;100851.75;5066513;28;45393;-75
2023/08/26 00:56:01;;;;;;;;;1.25;1.25;;;;;21.24;55.44;100828.88;5059602;28;45448;-75
2023/08/26 00:58:28;;;;;;;;;1.00;1.00;;;;;21.26;55.88;100845.06;5059423;28;45335;-75
2023/08/26 01:00:56;;;;;;;;;0.00;0.00;;;;;21.32;55.83;100850.03;5058831;28;45370;-75
2023/08/26 01:03:21;;;;;;;;;0.75;0.75;;;;;21.27;56.00;100847.66;5059846;28;45611;-75
2023/08/26 01:05:46;;;;;;;;;1.50;1.00;;;;;21.30;55.79;100843.84;5056731;28;45683;-75
2023/08/26 01:08:13;;;;;;;;;1.00;1.00;;;;;21.32;55.62;100852.75;5056461;28;45411;-75
2023/08/26 01:10:50;;;;;;;;;2.00;2.00;;;;;21.32;55.47;100854.56;5059055;28;45329;-75
2023/08/26 01:13:22;;;;;;;;;1.25;1.25;;;;;21.23;55.77;100845.28;5075624;28;45442;-75
2023/08/26 01:15:50;;;;;;;;;2.25;1.00;;;;;21.30;55.83;100854.72;5073158;28;45332;-75
2023/08/26 01:18:16;;;;;;;;;1.00;1.00;;;;;21.30;55.89;100868.28;5065955;28;45323;-75
2023/08/26 01:20:43;;;;;;;;;2.00;1.00;;;;;21.24;55.08;100850.59;5059300;28;45433;-75
2023/08/26 01:23:22;;;;;;;;;1.00;1.00;;;;;21.28;55.64;100853.94;5059867;28;45389;-75
2023/08/26 01:25:48;;;;;;;;;0.50;0.50;;;;;21.24;55.54;100853.31;5059095;28;45332;-75
2023/08/26 01:28:13;;;;;;;;;0.00;0.00;;;;;21.25;55.95;100851.44;5045476;28;45375;-75
2023/08/26 01:30:39;;;;;;;;;0.25;0.25;;;;;21.21;56.08;100852.69;5055809;28;51456;-75
2023/08/26 01:33:15;;;;;;;;;1.00;1.00;;;;;21.19;56.67;100851.94;5059569;28;45393;-75
2023/08/26 01:35:43;;;;;;;;;2.00;2.00;;;;;21.20;56.87;100845.50;5059174;28;45271;-75
2023/08/26 01:38:10;;;;;;;;;0.25;0.25;;;;;21.20;56.54;100845.50;5057748;28;45488;-75
2023/08/26 01:40:40;;;;;;;;;0.25;0.25;;;;;21.20;56.55;100843.69;5059218;28;45385;-75
2023/08/26 01:43:07;;;;;;;;;2.00;1.00;;;;;21.22;57.54;100838.13;5075038;28;45359;-75
2023/08/26 01:45:32;;;;;;;;;1.00;1.00;;;;;21.17;57.13;100824.91;5059459;28;45369;-75
2023/08/26 01:47:58;;;;;;;;;1.00;1.00;;;;;21.22;57.18;100833.56;5056612;28;52295;-75
2023/08/26 01:50:23;;;;;;;;;1.00;1.00;;;;;21.20;57.10;100830.09;5055634;28;45494;-75
2023/08/26 01:52:48;;;;;;;;;0.50;0.50;;;;;21.18;57.09;100821.19;5059271;28;45486;-75
2023/08/26 01:55:14;;;;;;;;;2.50;1.00;;;;;21.24;56.40;100833.44;5074039;28;57385;-75
2023/08/26 01:57:39;;;;;;;;;1.25;1.25;;;;;21.23;56.54;100826.28;5052526;28;45982;-75
2023/08/26 02:00:05;;;;;;;;;0.00;0.00;;;;;21.23;56.33;100831.72;5058934;28;50834;-75
2023/08/26 02:02:30;;;;;;;;;1.00;1.00;;;;;21.24;55.90;100830.72;5057552;28;45393;-75
2023/08/26 02:04:56;;;;;;;;;0.00;0.00;;;;;21.22;55.31;100827.28;5058971;28;45456;-75
2023/08/26 02:07:21;;;;;;;;;1.00;1.00;;;;;21.22;55.29;100821.84;5056457;28;45447;-75
2023/08/26 02:09:46;;;;;;;;;0.00;0.00;;;;;21.22;56.04;100827.28;5058138;28;45390;-75
2023/08/26 02:12:11;;;;;;;;;2.00;0.00;;;;;21.23;55.45;100824.44;5058979;28;45313;-74
2023/08/26 02:14:37;;;;;;;;;1.00;1.00;;;;;21.21;55.49;100815.53;5058718;28;52942;-75
2023/08/26 02:17:02;;;;;;;;;0.25;0.25;;;;;21.24;55.34;100820.72;5056334;28;56569;-75
2023/08/26 02:19:27;;;;;;;;;3.00;1.00;;;;;21.22;55.59;100817.28;5058009;28;45306;-75
2023/08/26 02:21:53;;;;;;;;;1.00;1.00;;;;;21.20;55.44;100816.53;5058939;28;45375;-75
2023/08/26 02:24:18;;;;;;;;;1.00;1.00;;;;;21.16;55.45;100815.03;5058985;28;45486;-75
2023/08/26 02:26:43;;;;;;;;;1.00;1.00;;;;;21.17;55.65;100822.19;5047276;28;45810;-75
2023/08/26 02:29:09;;;;;;;;;1.25;1.00;;;;;21.14;55.10;100821.56;5057255;28;45421;-74
2023/08/26 02:31:34;;;;;;;;;1.00;1.00;;;;;21.04;55.60;100807.81;5058509;28;51276;-75
2023/08/26 02:33:59;;;;;;;;;1.00;1.00;;;;;21.04;55.16;100808.69;5057279;28;45521;-74
2023/08/26 02:36:25;;;;;;;;;1.00;1.00;;;;;20.90;55.65;100801.59;5049541;28;46573;-75
2023/08/26 02:38:50;;;;;;;;;1.00;1.00;;;;;20.98;55.93;100820.00;5055181;28;45444;-75
2023/08/26 02:41:15;;;;;;;;;1.00;1.00;;;;;20.97;55.52;100814.69;5058803;28;45504;-74
2023/08/26 02:43:41;;;;;;;;;1.00;1.00;;;;;20.90;55.93;100800.72;5059931;28;45618;-75
2023/08/26 02:46:06;;;;;;;;;0.75;0.75;;;;;20.89;55.88;100804.41;5077178;28;62951;-75
2023/08/26 02:48:31;;;;;;;;;1.50;1.50;;;;;20.88;56.04;100800.84;5060958;28;52754;-75
2023/08/26 02:50:58;;;;;;;;;1.00;1.00;;;;;20.88;56.14;100810.81;5062011;28;45449;-75
2023/08/26 02:53:24;;;;;;;;;1.00;1.00;;;;;20.87;56.06;100809.09;5061880;28;45327;-75
2023/08/26 02:55:50;;;;;;;;;1.00;1.00;;;;;20.79;56.18;100795.22;5061063;28;46110;-75
2023/08/26 02:58:15;;;;;;;;;1.00;1.00;;;;;20.75;56.33;100796.41;5076840;28;45481;-75
2023/08/26 03:00:40;;;;;;;;;2.00;2.00;;;;;20.78;56.44;100801.63;5059096;28;51908;-75
2023/08/26 03:03:06;;;;;;;;;2.00;2.00;;;;;20.76;56.58;100790.03;5061306;28;45636;-75
2023/08/26 03:05:31;;;;;;;;;1.50;1.50;;;;;20.81;57.08;100790.53;5059645;28;58917;-75
2023/08/26 03:07:56;;;;;;;;;1.75;1.75;;;;;20.75;56.63;100782.84;5064810;28;45381;-75
2023/08/26 03:10:22;;;;;;;;;2.00;2.00;;;;;20.72;56.59;100786.69;5071153;28;45297;-75
2023/08/26 03:12:47;;;;;;;;;1.00;1.00;;;;;20.72;57.04;100782.13;5060160;28;45297;-75
2023/08/26 03:15:13;;;;;;;;;2.00;2.00;;;;;20.72;56.85;100790.25;5072807;28;45344;-75
2023/08/26 03:17:38;;;;;;;;;1.25;1.25;;;;;20.67;57.46;100778.88;5063857;28;45314;-75
2023/08/26 03:20:05;;;;;;;;;2.00;2.00;;;;;20.69;57.00;100785.06;5059137;28;45466;-75
2023/08/26 03:22:30;;;;;;;;;1.00;1.00;;;;;20.71;57.38;100795.78;5058523;28;45366;-75
2023/08/26 03:24:55;;;;;;;;;1.00;1.00;;;;;20.63;57.41;100790.94;5061480;28;46116;-75
2023/08/26 03:27:21;;;;;;;;;1.00;1.00;;;;;20.64;57.52;100798.09;5060522;28;45550;-75
2023/08/26 03:29:46;;;;;;;;;2.00;2.00;;;;;20.60;57.34;100790.25;5061816;28;45392;-75
2023/08/26 03:32:11;;;;;;;;;1.75;1.75;;;;;20.55;57.39;100787.91;5060054;28;55154;-75
2023/08/26 03:34:37;;;;;;;;;2.75;1.00;;;;;20.44;57.81;100779.69;5060855;28;58139;-75
2023/08/26 03:37:03;;;;;;;;;0.75;0.75;;;;;20.44;57.83;100785.97;5056894;28;45469;-75
2023/08/26 03:39:28;;;;;;;;;2.00;2.00;;;;;20.48;58.05;100789.31;5061231;28;45397;-75
2023/08/26 03:41:53;;;;;;;;;1.00;1.00;;;;;20.47;57.87;100793.03;5078325;27;62640;-75
2023/08/26 03:44:19;;;;;;;;;0.25;0.25;;;;;20.39;58.09;100784.56;5059503;28;59148;-75
2023/08/26 03:46:44;;;;;;;;;1.50;1.50;;;;;20.36;58.31;100785.66;5076213;28;57265;-75
2023/08/26 03:49:09;;;;;;;;;1.00;1.00;;;;;20.35;58.68;100792.06;5060340;28;45341;-75
2023/08/26 03:51:34;;;;;;;;;1.25;1.25;;;;;20.37;58.56;100781.97;5061004;28;45417;-75
2023/08/26 03:54:00;;;;;;;;;0.25;0.00;;;;;20.34;58.21;100790.31;5058909;28;46287;-75
2023/08/26 03:56:25;;;;;;;;;3.25;1.75;;;;;20.28;58.42;100783.53;5059401;28;52639;-75
2023/08/26 03:58:56;;;;;;;;;2.00;2.00;;;;;20.29;58.85;100793.38;5060418;28;45372;-75
2023/08/26 04:01:21;;;;;;;;;1.25;1.25;;;;;20.24;59.06;100778.44;5069287;28;45333;-74
2023/08/26 04:03:50;;;;;;;;;3.00;1.00;;;;;20.26;59.47;100782.75;5059376;28;45350;-75
2023/08/26 04:06:17;;;;;;;;;1.00;1.00;;;;;20.20;59.16;100776.91;5060843;28;45464;-75
2023/08/26 04:08:44;;;;;;;;;3.75;1.50;;;;;20.24;59.06;100789.25;5059632;28;45408;-75
2023/08/26 04:11:09;;;;;;;;;1.75;1.75;;;;;20.21;59.39;100786.78;5059916;28;45499;-75
2023/08/26 04:13:34;;;;;;;;;2.00;2.00;;;;;20.16;59.43;100785.28;5059116;28;58388;-75
2023/08/26 04:16:02;;;;;;;;;3.25;2.00;;;;;20.16;59.10;100792.50;5059967;28;45272;-75
2023/08/26 04:18:28;;;;;;;;;1.50;1.50;;;;;20.10;59.18;100785.72;5060919;28;45623;-75
2023/08/26 04:20:53;;;;;;;;;1.50;1.50;;;;;20.13;59.32;100792.72;5060472;28;45457;-75
2023/08/26 04:23:19;;;;;;;;;1.00;1.00;;;;;20.12;59.49;100793.72;5059582;28;45492;-75
2023/08/26 04:25:44;;;;;;;;;1.00;1.00;;;;;20.10;59.90;100790.28;5059270;28;45378;-75
2023/08/26 04:28:11;;;;;;;;;3.00;2.00;;;;;20.04;59.70;100788.84;5060916;28;45370;-75
2023/08/26 04:30:37;;;;;;;;;1.00;1.00;;;;;20.05;59.84;100787.03;5060495;28;45495;-75
2023/08/26 04:33:04;;;;;;;;;2.00;1.75;;;;;20.03;59.87;100789.84;5059478;28;45854;-75
2023/08/26 04:35:29;;;;;;;;;1.25;1.25;;;;;20.02;59.91;100782.69;5058695;28;45702;-75
2023/08/26 04:37:55;;;;;;;;;1.00;1.00;;;;;19.96;59.99;100778.56;5053571;28;45393;-75
2023/08/26 04:40:20;;;;;;;;;1.00;1.00;;;;;19.98;60.10;100782.03;5057831;28;45603;-75
2023/08/26 04:42:45;;;;;;;;;1.25;1.25;;;;;19.95;59.84;100779.53;5059837;28;49527;-75
2023/08/26 04:45:14;;;;;;;;;1.00;1.00;;;;;19.99;59.90;100791.03;5059363;28;45309;-75
2023/08/26 04:47:40;;;;;;;;;1.00;1.00;;;;;19.96;60.40;100791.22;5060462;28;45437;-75
2023/08/26 04:50:06;;;;;;;;;2.00;1.25;;;;;19.95;60.01;100789.53;5059760;28;45405;-75
2023/08/26 04:52:31;;;;;;;;;1.00;1.00;;;;;19.90;60.06;100787.13;5058948;28;46312;-75
2023/08/26 04:54:56;;;;;;;;;2.00;2.00;;;;;19.83;60.44;100784.94;5054930;28;59987;-75
2023/08/26 04:57:22;;;;;;;;;2.00;2.00;;;;;19.86;60.19;100795.56;5051866;28;47341;-75
2023/08/26 04:59:47;;;;;;;;;3.75;2.25;;;;;19.76;60.54;100788.13;5060008;28;46226;-75
2023/08/26 05:02:12;;;;;;;;;1.00;1.00;;;;;19.73;60.70;100796.41;5059104;28;45382;-75
2023/08/26 05:04:38;;;;;;;;;1.00;1.00;;;;;19.69;60.90;100802.16;5057240;28;45983;-75
2023/08/26 05:07:03;;;;;;;;;1.00;1.00;;;;;19.61;60.95;100795.44;5059170;28;45300;-75
2023/08/26 05:09:29;;;;;;;;;1.00;1.00;;;;;19.62;60.94;100804.41;5059412;28;45599;-75
2023/08/26 05:11:58;;;;;;;;;1.00;1.00;;;;;19.61;61.07;100808.97;5060038;28;45432;-75
2023/08/26 05:14:23;;;;;;;;;3.50;2.00;;;;;19.61;61.64;100810.78;5057745;28;45748;-75
2023/08/26 05:16:49;;;;;;;;;1.25;1.00;;;;;19.60;61.56;100809.06;5059350;28;45325;-75
2023/08/26 05:19:14;;;;;;;;;1.75;1.75;;;;;19.57;61.43;100809.28;5058712;28;45844;-75
2023/08/26 05:21:40;;;;;;;;;3.00;1.00;;;;;19.57;61.54;100810.13;5075308;28;45923;-75
2023/08/26 05:24:05;;;;;;;;;1.00;1.00;;;;;19.58;61.67;100817.31;5059611;28;45574;-75
2023/08/26 05:26:31;;;;;;;;;2.50;1.25;;;;;19.56;61.44;100815.66;5055429;28;45481;-75
2023/08/26 05:28:56;;;;;;;;;1.00;1.00;;;;;19.51;61.66;100807.00;5058301;28;45692;-75
2023/08/26 05:31:21;;;;;;;;;2.00;1.00;;;;;19.48;61.70;100809.91;5059521;28;46104;-75
2023/08/26 05:33:47;;;;;;;;;1.00;1.00;;;;;19.54;61.69;100828.44;5059410;28;45347;-75
2023/08/26 05:36:12;;;;;;;;;0.25;0.25;;;;;19.50;62.04;100826.94;5058288;28;47955;-75
2023/08/26 05:38:37;;;;;;;;;3.00;0.50;;;;;19.44;62.11;100815.56;5057164;28;45248;-75
2023/08/26 05:41:03;;;;;;;;;1.00;1.00;;;;;19.43;62.00;100818.38;5059449;28;45936;-75
2023/08/26 05:43:29;;;;;;;;;0.75;0.00;;;;;19.40;62.20;100811.31;5059299;28;45290;-75
2023/08/26 05:45:56;;;;;;;;;1.00;1.00;;;;;19.41;62.24;100814.88;5057368;28;45305;-75
2023/08/26 05:48:22;;;;;;;;;0.00;0.00;;;;;19.38;62.35;100818.66;5058621;28;45552;-75
2023/08/26 05:50:47;;;;;;;;;2.00;2.00;;;;;19.37;62.62;100816.06;5059009;28;45479;-75
2023/08/26 05:53:13;;;;;;;;;0.75;0.75;;;;;19.23;62.39;100790.81;5058746;28;45300;-75
2023/08/26 05:55:40;;;;;;;;;1.75;1.00;;;;;19.28;62.83;100806.75;5057252;28;45621;-75
2023/08/26 05:58:05;;;;;;;;;2.00;1.00;;;;;19.28;62.43;100811.25;5058750;28;45376;-75
2023/08/26 06:00:31;;;;;;;;;1.00;1.00;;;;;19.23;62.51;100798.06;5058961;28;46153;-75
2023/08/26 06:02:56;;;;;;;;;2.25;1.00;;;;;19.28;63.00;100813.97;5055704;28;47449;-75
2023/08/26 06:05:22;;;;;;;;;0.00;0.00;;;;;19.24;62.40;100818.72;5057252;28;59236;-75
2023/08/26 06:07:48;;;;;;;;;0.75;0.75;;;;;19.19;62.98;100820.88;5048668;28;45499;-75
2023/08/26 06:10:13;;;;;;;;;1.00;1.00;;;;;19.18;62.97;100821.88;5058349;28;45918;-75
2023/08/26 06:12:38;;;;;;;;;1.00;1.00;;;;;19.17;63.16;100817.41;5072222;28;46673;-75
2023/08/26 06:15:04;;;;;;;;;0.00;0.00;;;;;19.18;63.08;100827.28;5058518;28;47716;-75
2023/08/26 06:17:30;;;;;;;;;0.00;0.00;;;;;19.16;63.13;100826.50;5058264;28;45389;-75
2023/08/26 06:19:55;;;;;;;;;1.00;1.00;;;;;19.03;63.36;100808.38;5060906;28;45445;-75
2023/08/26 06:22:20;;;;;;;;;0.00;0.00;;;;;19.06;63.00;100810.00;5058608;28;45398;-75
2023/08/26 06:24:46;;;;;;;;;1.00;1.00;;;;;19.14;63.05;100826.59;5055314;28;45393;-75
2023/08/26 06:27:11;;;;;;;;;1.00;1.00;;;;;19.16;63.40;100826.50;5049399;28;45455;-75
2023/08/26 06:29:43;;;;;;;;;0.50;0.50;;;;;19.14;63.50;100825.72;5056691;28;64451;-75
2023/08/26 06:32:08;;;;;;;;;0.75;0.75;;;;;19.11;63.30;100821.41;5058617;28;45754;-75
2023/08/26 06:34:34;;;;;;;;;2.00;2.00;;;;;19.07;63.69;100817.16;5058688;28;45535;-75
2023/08/26 06:36:59;;;;;;;;;1.75;1.00;;;;;19.04;63.75;100807.44;5056857;28;45322;-75
2023/08/26 06:39:24;;;;;;;;;1.00;1.00;;;;;19.02;63.53;100809.34;5057210;28;48769;-75
2023/08/26 06:41:50;;;;;;;;;1.00;1.00;;;;;19.04;63.59;100814.66;5066491;28;60274;-75
2023/08/26 06:44:15;;;;;;;;;2.00;0.00;;;;;19.04;63.62;100818.25;5058346;28;55139;-75
2023/08/26 06:46:40;;;;;;;;;2.50;1.00;;;;;19.02;63.96;100814.75;5057339;28;45321;-75
2023/08/26 06:49:07;;;;;;;;;0.25;0.25;;;;;18.99;63.93;100814.97;5053565;28;46011;-75
2023/08/26 06:51:32;;;;;;;;;2.00;2.00;;;;;19.01;63.80;100828.38;5057790;28;45414;-75
2023/08/26 06:53:57;;;;;;;;;0.50;0.50;;;;;19.00;64.01;100811.28;5057894;28;54440;-75
2023/08/26 06:56:23;;;;;;;;;2.00;1.00;;;;;18.95;64.01;100805.31;5055643;28;61740;-75
2023/08/26 06:58:48;;;;;;;;;0.75;0.75;;;;;19.02;64.15;100803.06;5073297;28;48284;-77
2023/08/26 07:01:13;;;;;;;;;2.00;0.25;;;;;18.98;64.28;100805.13;5056516;28;45487;-77
2023/08/26 07:03:39;;;;;;;;;3.50;1.00;;;;;18.98;64.47;100801.56;5056016;28;56366;-78
2023/08/26 07:06:04;;;;;;;;;0.75;0.75;;;;;19.05;64.25;100813.69;5052465;28;58897;-77
2023/08/26 07:08:29;;;;;;;;;1.75;0.75;;;;;19.07;64.32;100817.16;5056164;28;45511;-77
2023/08/26 07:10:55;;;;;;;;;1.00;1.00;;;;;19.01;64.57;100796.81;5057650;28;57309;-75
2023/08/26 07:13:20;;;;;;;;;0.00;0.00;;;;;19.03;64.19;100804.81;5056354;28;45484;-75
2023/08/26 07:15:45;;;;;;;;;1.75;0.75;;;;;19.05;64.42;100792.91;5057988;28;45518;-74
2023/08/26 07:18:11;;;;;;;;;1.75;1.00;;;;;19.08;64.42;100797.25;5052972;28;47095;-74
2023/08/26 07:20:36;;;;;;;;;0.00;0.00;;;;;19.17;64.31;100807.44;5050630;28;45458;-74
2023/08/26 07:23:02;;;;;;;;;0.25;0.25;;;;;19.18;64.85;100811.91;5057686;28;45415;-74
2023/08/26 07:25:27;;;;;;;;;0.00;0.00;;;;;19.17;64.35;100807.44;5057847;28;45559;-74
2023/08/26 07:27:52;;;;;;;;;0.75;0.00;;;;;19.20;64.71;100809.97;5056799;28;46144;-74
2023/08/26 07:30:18;;;;;;;;;2.25;0.25;;;;;19.22;64.59;100810.72;5065799;28;45345;-75
2023/08/26 07:32:43;;;;;;;;;0.00;0.00;;;;;19.31;64.21;100811.94;5061735;28;45461;-75
2023/08/26 07:35:09;;;;;;;;;0.00;0.00;;;;;19.30;64.37;100799.38;5075794;28;45572;-75
2023/08/26 07:37:36;;;;;;;;;0.00;0.00;;;;;19.35;64.22;100805.34;5059629;28;48212;-75
2023/08/26 07:40:05;;;;;;;;;0.00;0.00;;;;;19.38;64.62;100804.28;5058850;28;45405;-75
2023/08/26 07:42:31;;;;;;;;;2.00;1.00;;;;;19.41;64.46;100810.34;5065171;27;45539;-74
2023/08/26 07:44:57;;;;;;;;;0.00;0.00;;;;;19.45;64.54;100811.00;5060121;28;45250;-74
2023/08/26 07:47:22;;;;;;;;;1.50;1.50;;;;;19.48;64.74;100805.38;5059889;28;45307;-75
2023/08/26 07:49:47;;;;;;;;;1.00;1.00;;;;;19.51;65.08;100810.59;5060090;28;45306;-76
2023/08/26 07:52:13;;;;;;;;;1.25;0.75;;;;;19.52;64.93;100816.84;5060658;28;45333;-76
2023/08/26 07:54:38;;;;;;;;;0.75;0.75;;;;;19.53;65.07;100807.75;5059575;28;45467;-76
2023/08/26 07:57:04;;;;;;;;;0.75;0.75;;;;;19.60;64.98;100818.06;5068082;28;46234;-76
2023/08/26 07:59:29;;;;;;;;;1.00;1.00;;;;;19.63;64.91;100808.88;5079368;27;45481;-76
2023/08/26 08:01:54;;;;;;;;;0.75;0.75;;;;;19.69;64.44;100821.09;5059382;28;45308;-76
2023/08/26 08:04:19;;;;;;;;;0.00;0.00;;;;;19.74;64.72;100827.91;5060098;28;52521;-76
2023/08/26 08:06:45;;;;;;;;;1.00;0.00;;;;;19.67;64.49;100809.53;5048997;28;64035;-75
2023/08/26 08:09:10;;;;;;;;;0.25;0.25;;;;;19.75;64.36;100816.16;5059433;28;57144;-78
2023/08/26 08:11:35;;;;;;;;;0.00;0.00;;;;;19.83;64.56;100829.19;5061162;28;45365;-75
2023/08/26 08:14:01;;;;;;;;;1.00;1.00;;;;;19.85;64.51;100832.63;5060722;28;45774;-75
2023/08/26 08:16:26;;;;;;;;;2.00;2.00;;;;;19.84;64.27;100828.19;5062217;28;46064;-75
2023/08/26 08:18:51;;;;;;;;;0.25;0.25;;;;;19.86;64.41;100836.22;5058185;28;61859;-75
2023/08/26 08:21:17;;;;;;;;;1.75;1.00;;;;;19.91;64.39;100839.47;5073135;28;45325;-74
2023/08/26 08:23:43;;;;;;;;;0.00;0.00;;;;;19.90;64.30;100846.72;5059335;28;52550;-74
2023/08/26 08:26:10;;;;;;;;;0.00;0.00;;;;;19.91;64.57;100862.03;5079742;27;47084;-75
2023/08/26 08:28:35;;;;;;;;;0.75;0.75;;;;;19.91;64.69;100863.84;5058779;28;45466;-75
2023/08/26 08:31:01;;;;;;;;;2.00;0.25;;;;;19.85;64.47;100848.03;5060124;28;53539;-75
2023/08/26 08:33:26;;;;;;;;;1.00;1.00;;;;;19.97;64.54;100861.56;5059486;28;45366;-75
2023/08/26 08:35:51;;;;;;;;;1.00;0.75;;;;;19.98;64.55;100866.03;5061705;28;45939;-74
2023/08/26 08:38:17;;;;;;;;;0.25;0.25;;;;;19.95;64.55;100855.41;5064465;28;60650;-75
2023/08/26 08:40:43;;;;;;;;;1.00;0.75;;;;;19.93;64.51;100849.22;5058575;28;51066;-76
2023/08/26 08:43:10;;;;;;;;;2.00;1.00;;;;;19.98;64.45;100868.72;5057578;28;46265;-75
2023/08/26 08:45:35;;;;;;;;;1.00;1.00;;;;;19.97;64.49;100858.00;5065509;28;46197;-74
2023/08/26 08:48:01;;;;;;;;;0.00;0.00;;;;;20.01;64.62;100867.63;5055675;27;45369;-75
2023/08/26 08:50:28;;;;;;;;;1.00;1.00;;;;;20.05;64.81;100873.72;5057097;28;45556;-74
2023/08/26 08:52:58;;;;;;;;;3.00;0.50;;;;;20.03;64.40;100849.44;5059782;28;45417;-74
2023/08/26 08:55:24;;;;;;;;;1.00;1.00;;;;;20.06;64.42;100856.47;5075191;28;48185;-75
2023/08/26 08:57:51;;;;;;;;;0.25;0.25;;;;;20.16;64.36;100865.69;5080764;27;45398;-76
2023/08/26 09:00:17;;;;;;;;;1.00;1.00;;;;;20.11;64.58;100859.72;5070310;27;45479;-75
2023/08/26 09:02:45;;;;;;;;;0.00;0.00;;;;;20.16;64.79;100860.28;5060561;28;46137;-74
2023/08/26 09:05:11;;;;;;;;;0.50;0.50;;;;;20.20;64.05;100866.34;5075175;28;48354;-74
2023/08/26 09:07:38;;;;;;;;;0.75;0.00;;;;;20.25;64.37;100853.34;5059657;28;45326;-77
2023/08/26 09:10:05;;;;;;;;;2.00;1.00;;;;;20.31;63.90;100861.03;5059412;28;45317;-75
2023/08/26 09:12:31;;;;;;;;;1.00;1.00;;;;;20.26;64.58;100845.09;5053784;28;45405;-74
2023/08/26 09:14:56;;;;;;;;;1.00;0.75;;;;;20.41;63.61;100872.94;5058463;28;46210;-73
2023/08/26 09:17:21;;;;;;;;;1.00;1.00;;;;;20.43;63.03;100865.59;5059559;28;45264;-73
2023/08/26 09:19:59;;;;;;;;;0.00;0.00;;;;;20.39;63.29;100846.94;5058258;28;45545;-74
2023/08/26 09:22:29;;;;;;;;;1.00;1.00;;;;;20.49;63.20;100861.56;5058945;27;45868;-74
2023/08/26 09:24:55;;;;;;;;;0.25;0.25;;;;;20.55;63.28;100869.25;5058420;28;45430;-74
2023/08/26 09:27:21;;;;;;;;;0.00;0.00;;;;;20.56;63.32;100870.97;5074083;27;46062;-75
2023/08/26 09:29:46;;;;;;;;;1.00;1.00;;;;;20.59;63.28;100868.03;5055765;28;45371;-74
2023/08/26 09:32:12;;;;;;;;;0.00;0.00;;;;;20.62;63.15;100858.81;5059547;28;45350;-75
2023/08/26 09:34:37;;;;;;;;;1.00;1.00;;;;;20.70;63.11;100857.31;5056573;28;46069;-75
2023/08/26 09:37:03;;;;;;;;;1.00;1.00;;;;;20.76;63.83;100869.53;5058829;28;45452;-75
2023/08/26 09:39:29;;;;;;;;;2.00;1.00;;;;;20.80;63.06;100864.75;5058828;28;45498;-75
2023/08/26 09:41:56;;;;;;;;;2.00;0.25;;;;;20.85;63.17;100860.75;5058449;28;45500;-75
2023/08/26 09:44:22;;;;;;;;;1.00;1.00;;;;;20.90;62.84;100865.84;5054920;28;45492;-75
2023/08/26 09:46:48;;;;;;;;;0.00;0.00;;;;;20.95;62.59;100855.50;5059716;28;45326;-75
2023/08/26 09:49:15;;;;;;;;;0.00;0.00;;;;;20.94;61.09;100856.47;5079409;27;45476;-75
2023/08/26 09:51:49;;;;;;;;;1.25;1.00;;;;;20.98;61.32;100857.13;5056975;28;45719;-70
2023/08/26 09:54:16;;;;;;;;;0.00;0.00;;;;;21.01;61.01;100852.31;5063091;28;46301;-68
2023/08/26 09:56:42;;;;;;;;;1.00;1.00;;;;;20.94;61.41;100842.91;5058887;28;45437;-68
2023/08/26 09:59:07;;;;;;;;;0.00;0.00;;;;;21.00;61.11;100853.31;5058092;28;45456;-67
2023/08/26 10:01:34;;;;;;;;;0.00;0.00;;;;;21.07;61.06;100861.88;5056315;28;45514;-68
2023/08/26 10:04:08;;;;;;;;;0.00;0.00;;;;;21.10;60.61;100872.50;5071209;28;46367;-67
2023/08/26 10:06:40;;;;;;;;;1.00;1.00;;;;;21.00;60.61;100842.47;5053900;28;45580;-67
2023/08/26 10:09:15;;;;;;;;;1.00;0.00;;;;;21.06;60.62;100852.84;5058759;28;45283;-67
2023/08/26 10:11:43;;;;;;;;;0.00;0.00;;;;;21.08;60.00;100837.34;5056272;28;45425;-67
2023/08/26 10:14:13;;;;;;;;;1.50;0.75;;;;;21.10;60.11;100845.34;5056675;28;46129;-69
2023/08/26 10:16:38;;;;;;;;;2.50;0.25;;;;;21.16;59.95;100847.59;5067855;28;45489;-68
2023/08/26 10:19:04;;;;;;;;;1.00;1.00;;;;;21.17;59.94;100845.75;5065068;27;45455;-68
2023/08/26 10:21:31;;;;;;;;;0.75;0.75;;;;;21.21;60.05;100841.81;5059132;28;45297;-67
2023/08/26 10:23:57;;;;;;;;;2.00;0.00;;;;;21.24;60.00;100842.44;5056877;28;46175;-67
2023/08/26 10:26:24;;;;;;;;;0.00;0.00;;;;;21.26;59.42;100851.34;5058779;28;45381;-66
2023/08/26 10:28:51;;;;;;;;;0.25;0.25;;;;;21.27;58.91;100841.38;5058907;28;45339;-68
2023/08/26 10:31:16;;;;;;;;;0.00;0.00;;;;;21.33;59.13;100840.03;5062418;28;45331;-65
2023/08/26 10:34:02;;;;;;;;;0.00;0.00;;;;;21.36;57.74;100832.50;5061263;28;45354;-65
2023/08/26 10:36:28;;;;;;;;;0.00;0.00;;;;;21.38;57.95;100838.69;5055521;28;45523;-65
2023/08/26 10:38:55;;;;;;;;;0.00;0.00;;;;;21.46;57.78;100844.38;5058483;28;45436;-65
2023/08/26 10:41:20;;;;;;;;;0.00;0.00;;;;;21.49;58.07;100829.75;5057778;28;45233;-65
2023/08/26 10:44:01;;;;;;;;;1.50;0.00;;;;;21.53;57.68;100833.94;5065672;28;57474;-65
2023/08/26 10:46:33;;;;;;;;;1.00;1.00;;;;;21.59;57.42;100835.34;5058488;28;45537;-65
2023/08/26 10:48:59;;;;;;;;;0.00;0.00;;;;;21.62;57.88;100846.84;5058657;28;45397;-65
2023/08/26 10:51:25;;;;;;;;;1.00;1.00;;;;;21.67;57.65;100837.44;5056039;28;45405;-65
2023/08/26 10:53:51;;;;;;;;;0.00;0.00;;;;;21.69;57.52;100836.34;5056644;28;46127;-65
2023/08/26 10:56:21;;;;;;;;;0.25;0.25;;;;;21.71;57.42;100823.50;5058149;28;45326;-65
2023/08/26 10:58:50;;;;;;;;;0.00;0.00;;;;;21.77;57.32;100822.19;5058568;28;45306;-65
2023/08/26 11:01:16;;;;;;;;;0.00;0.00;;;;;21.82;56.71;100823.53;5057559;28;45373;-65
2023/08/26 11:03:45;;;;;;;;;0.00;0.00;;;;;21.81;57.05;100801.94;5057712;28;45607;-65
2023/08/26 11:06:13;;;;;;;;;0.00;0.00;;;;;21.83;57.05;100799.94;5063665;28;45290;-65
2023/08/26 11:08:38;;;;;;;;;0.00;0.00;;;;;21.91;56.64;100813.78;5060843;28;45457;-65
2023/08/26 11:11:05;;;;;;;;;0.75;0.75;;;;;21.87;56.27;100786.97;5056838;28;45543;-65
2023/08/26 11:13:30;;;;;;;;;0.50;0.00;;;;;21.94;56.62;100813.56;5052637;28;45618;-65
2023/08/26 11:15:55;;;;;;;;;0.25;0.25;;;;;21.99;56.13;100792.31;5060827;28;45406;-65
2023/08/26 11:18:21;;;;;;;;;1.00;0.00;;;;;22.06;56.20;100802.72;5061333;28;45365;-65